createdAt,value
2022-10-18T00:02:12.539Z,0.40
2022-10-18T00:04:44.065Z,0.40
2022-10-18T00:07:12.683Z,1.83
2022-10-18T00:09:42.777Z,0.27
2022-10-18T00:12:11.211Z,0.30
2022-10-18T00:14:39.822Z,0.40
2022-10-18T00:17:08.458Z,0.40
2022-10-18T00:19:36.913Z,0.40
2022-10-18T00:22:05.424Z,0.30
2022-10-18T00:24:33.959Z,0.50
2022-10-18T00:27:03.769Z,0.60
2022-10-18T00:29:32.350Z,0.47
2022-10-18T00:32:00.914Z,0.43
2022-10-18T00:34:29.459Z,0.33
2022-10-18T00:36:58.062Z,0.50
2022-10-18T00:39:26.583Z,0.20
2022-10-18T00:41:55.105Z,0.37
2022-10-18T00:44:42.105Z,0.50
2022-10-18T00:47:13.298Z,0.50
2022-10-18T00:49:44.025Z,0.20
2022-10-18T00:52:14.897Z,0.40
2022-10-18T00:54:45.039Z,0.40
2022-10-18T00:57:14.164Z,0.30
2022-10-18T00:59:43.570Z,0.43
2022-10-18T01:02:15.083Z,0.20
2022-10-18T01:04:43.734Z,0.40
2022-10-18T01:07:16.667Z,0.57
2022-10-18T01:09:47.738Z,0.50
2022-10-18T01:12:30.400Z,0.60
2022-10-18T01:15:01.605Z,0.50
2022-10-18T01:17:44.719Z,2.20
2022-10-18T01:20:40.014Z,0.53
2022-10-18T01:23:11.482Z,0.33
2022-10-18T01:25:44.055Z,0.63
2022-10-18T01:28:17.787Z,0.63
2022-10-18T01:30:56.046Z,0.50
2022-10-18T01:33:38.065Z,0.50
2022-10-18T01:36:09.178Z,0.60
2022-10-18T01:38:38.687Z,0.60
2022-10-18T01:41:13.096Z,0.70
2022-10-18T01:43:45.620Z,0.40
2022-10-18T01:46:16.957Z,0.43
2022-10-18T01:48:45.763Z,0.60
2022-10-18T01:51:14.339Z,0.57
2022-10-18T01:53:42.849Z,0.53
2022-10-18T01:56:23.254Z,0.37
2022-10-18T01:58:56.890Z,0.50
2022-10-18T02:01:33.206Z,0.50
2022-10-18T02:04:05.926Z,0.50
2022-10-18T02:06:37.722Z,0.60
2022-10-18T02:09:10.150Z,0.70
2022-10-18T02:11:39.806Z,0.60
2022-10-18T02:14:09.862Z,0.60
2022-10-18T02:16:41.164Z,0.53
2022-10-18T02:19:12.198Z,0.70
2022-10-18T02:21:41.702Z,0.60
2022-10-18T02:24:10.674Z,0.57
2022-10-18T02:26:39.150Z,0.33
2022-10-18T02:29:07.866Z,1.10
2022-10-18T02:31:38.274Z,0.50
2022-10-18T02:34:10.938Z,0.47
2022-10-18T02:36:41.704Z,0.50
2022-10-18T02:39:15.137Z,0.50
2022-10-18T02:41:43.850Z,0.50
2022-10-18T02:44:12.367Z,0.40
2022-10-18T02:46:41.365Z,0.37
2022-10-18T02:49:11.206Z,0.37
2022-10-18T02:51:39.630Z,0.40
2022-10-18T02:54:08.580Z,0.30
2022-10-18T02:56:37.287Z,0.40
2022-10-18T02:59:07.428Z,0.37
2022-10-18T03:01:37.224Z,0.60
2022-10-18T03:04:06.020Z,0.40
2022-10-18T03:06:36.132Z,0.10
2022-10-18T03:09:04.725Z,0.50
2022-10-18T03:11:33.343Z,0.30
2022-10-18T03:14:01.797Z,0.43
2022-10-18T03:16:30.334Z,0.40
2022-10-18T03:18:58.909Z,0.40
2022-10-18T03:21:27.321Z,0.40
2022-10-18T03:23:58.810Z,0.30
2022-10-18T03:26:27.517Z,0.60
2022-10-18T03:28:55.990Z,0.30
2022-10-18T03:31:24.827Z,0.40
2022-10-18T03:33:53.394Z,0.30
2022-10-18T03:36:21.822Z,0.60
2022-10-18T03:38:50.438Z,0.50
2022-10-18T03:41:20.878Z,0.30
2022-10-18T03:43:49.301Z,0.50
2022-10-18T03:46:17.902Z,0.50
2022-10-18T03:48:46.461Z,0.40
2022-10-18T03:51:14.915Z,0.37
2022-10-18T03:53:43.542Z,0.33
2022-10-18T03:56:12.163Z,0.30
2022-10-18T03:58:41.999Z,0.50
2022-10-18T04:01:10.645Z,0.60
2022-10-18T04:03:39.290Z,0.40
2022-10-18T04:06:09.931Z,0.40
2022-10-18T04:08:40.020Z,0.40
2022-10-18T04:11:09.954Z,0.50
2022-10-18T04:13:38.634Z,0.60
2022-10-18T04:16:08.954Z,0.43
2022-10-18T04:18:37.395Z,0.50
2022-10-18T04:21:05.975Z,0.40
2022-10-18T04:23:37.921Z,0.50
2022-10-18T04:26:07.460Z,0.30
2022-10-18T04:28:40.221Z,0.40
2022-10-18T04:31:10.547Z,0.63
2022-10-18T04:33:39.074Z,0.40
2022-10-18T04:36:07.867Z,0.33
2022-10-18T04:38:36.401Z,0.30
2022-10-18T04:41:04.841Z,0.50
2022-10-18T04:43:33.950Z,0.40
2022-10-18T04:46:02.527Z,0.50
2022-10-18T04:48:32.339Z,0.60
2022-10-18T04:51:00.996Z,0.40
2022-10-18T04:53:29.417Z,0.50
2022-10-18T04:55:57.852Z,0.60
2022-10-18T04:58:26.654Z,0.50
2022-10-18T05:00:55.401Z,3.57
2022-10-18T05:03:23.836Z,1.20
2022-10-18T05:06:01.769Z,0.70
2022-10-18T05:08:31.726Z,1.77
2022-10-18T05:11:00.715Z,0.90
2022-10-18T05:13:29.337Z,0.60
2022-10-18T05:15:59.481Z,0.60
2022-10-18T05:18:28.312Z,0.40
2022-10-18T05:20:58.188Z,0.60
2022-10-18T05:23:26.861Z,0.60
2022-10-18T05:25:55.457Z,0.50
2022-10-18T05:28:41.068Z,0.53
2022-10-18T05:31:11.038Z,0.40
2022-10-18T05:33:39.739Z,0.50
2022-10-18T05:36:10.165Z,0.50
2022-10-18T05:38:42.295Z,0.40
2022-10-18T05:41:11.165Z,0.60
2022-10-18T05:43:39.784Z,0.50
2022-10-18T05:46:13.635Z,0.47
2022-10-18T05:48:44.033Z,0.40
2022-10-18T05:51:14.132Z,0.37
2022-10-18T05:53:42.637Z,0.40
2022-10-18T05:56:12.515Z,0.70
2022-10-18T05:58:41.350Z,0.50
2022-10-18T06:01:10.432Z,0.43
2022-10-18T06:03:38.886Z,0.60
2022-10-18T06:06:08.503Z,0.43
2022-10-18T06:08:39.128Z,0.50
2022-10-18T06:11:10.774Z,0.40
2022-10-18T06:13:42.194Z,0.43
2022-10-18T06:16:10.916Z,0.27
2022-10-18T06:18:39.466Z,0.40
2022-10-18T06:21:08.742Z,0.30
2022-10-18T06:23:38.591Z,0.50
2022-10-18T06:26:07.805Z,0.37
2022-10-18T06:28:37.100Z,0.30
2022-10-18T06:31:05.937Z,0.40
2022-10-18T06:33:34.516Z,0.40
2022-10-18T06:36:03.923Z,0.40
2022-10-18T06:38:32.596Z,0.60
2022-10-18T06:41:02.521Z,0.50
2022-10-18T06:43:31.078Z,0.50
2022-10-18T06:45:59.500Z,0.57
2022-10-18T06:48:28.113Z,0.57
2022-10-18T06:50:57.479Z,0.60
2022-10-18T06:53:26.013Z,0.70
2022-10-18T06:55:54.738Z,0.50
2022-10-18T06:58:25.477Z,0.50
2022-10-18T07:00:53.920Z,0.47
2022-10-18T07:03:23.071Z,0.50
2022-10-18T07:05:51.666Z,0.33
2022-10-18T07:08:20.108Z,0.40
2022-10-18T07:10:53.413Z,0.33
2022-10-18T07:13:32.484Z,0.40
2022-10-18T07:16:03.741Z,0.27
2022-10-18T07:18:32.256Z,0.37
2022-10-18T07:21:02.776Z,0.30
2022-10-18T07:23:31.323Z,0.37
2022-10-18T07:26:00.020Z,0.70
2022-10-18T07:28:28.492Z,0.40
2022-10-18T07:30:57.046Z,0.53
2022-10-18T07:33:26.981Z,0.33
2022-10-18T07:35:55.438Z,0.40
2022-10-18T07:38:24.021Z,0.50
2022-10-18T07:40:58.533Z,0.60
2022-10-18T07:43:27.282Z,0.50
2022-10-18T07:45:55.910Z,0.50
2022-10-18T07:48:24.425Z,0.60
2022-10-18T07:50:54.448Z,0.40
2022-10-18T07:53:22.887Z,0.40
2022-10-18T07:55:51.297Z,0.40
2022-10-18T07:58:20.069Z,0.40
2022-10-18T08:00:48.520Z,0.60
2022-10-18T08:03:16.966Z,0.50
2022-10-18T08:05:45.645Z,0.60
2022-10-18T08:08:15.470Z,0.30
2022-10-18T08:10:43.897Z,0.50
2022-10-18T08:13:12.653Z,0.57
2022-10-18T08:15:41.077Z,0.40
2022-10-18T08:18:09.629Z,0.40
2022-10-18T08:20:38.326Z,0.60
2022-10-18T08:23:06.761Z,0.40
2022-10-18T08:28:10.161Z,0.40
2022-10-18T08:30:38.715Z,0.40
2022-10-18T08:33:07.569Z,0.30
2022-10-18T08:35:36.108Z,0.40
2022-10-18T08:38:04.664Z,0.30
2022-10-18T08:40:33.904Z,0.90
2022-10-18T08:43:05.921Z,0.20
2022-10-18T08:45:42.224Z,0.20
2022-10-18T08:48:19.115Z,0.30
2022-10-18T08:50:48.443Z,0.23
2022-10-18T08:53:18.972Z,0.10
2022-10-18T08:55:49.364Z,0.00
2022-10-18T08:58:21.101Z,0.10
2022-10-18T09:00:56.692Z,0.10
2022-10-18T09:03:30.160Z,0.00
2022-10-18T09:06:04.090Z,0.00
2022-10-18T09:08:42.573Z,0.10
2022-10-18T09:11:17.735Z,0.03
2022-10-18T09:14:00.982Z,0.10
2022-10-18T09:16:35.379Z,0.10
2022-10-18T09:19:07.287Z,0.10
2022-10-18T09:21:41.909Z,0.10
2022-10-18T09:24:13.597Z,0.00
2022-10-18T09:26:45.610Z,0.10
2022-10-18T09:29:24.273Z,0.00
2022-10-18T09:31:58.123Z,0.17
2022-10-18T09:34:32.251Z,0.10
2022-10-18T09:37:01.220Z,0.00
2022-10-18T09:39:32.126Z,0.20
2022-10-18T09:42:02.018Z,0.10
2022-10-18T09:44:32.317Z,0.10
2022-10-18T09:47:03.458Z,0.10
2022-10-18T09:49:33.802Z,0.17
2022-10-18T09:52:03.410Z,0.10
2022-10-18T09:54:34.363Z,0.10
2022-10-18T09:57:05.437Z,0.10
2022-10-18T09:59:37.973Z,0.10
2022-10-18T10:02:08.365Z,0.23
2022-10-18T10:04:36.902Z,0.30
2022-10-18T10:07:09.089Z,0.00
2022-10-18T10:09:41.725Z,0.10
2022-10-18T10:12:26.586Z,0.00
2022-10-18T10:14:55.170Z,0.00
2022-10-18T10:17:26.464Z,0.10
2022-10-18T10:20:02.197Z,0.17
2022-10-18T10:22:36.285Z,0.10
2022-10-18T10:25:05.435Z,0.10
2022-10-18T10:27:35.464Z,0.10
2022-10-18T10:30:07.296Z,0.10
2022-10-18T10:32:47.506Z,0.03
2022-10-18T10:35:41.508Z,0.10
2022-10-18T10:38:24.890Z,0.13
2022-10-18T10:40:53.754Z,0.20
2022-10-18T10:43:40.455Z,0.10
2022-10-18T10:46:10.602Z,0.10
2022-10-18T10:48:47.221Z,0.10
2022-10-18T10:51:16.273Z,0.10
2022-10-18T10:53:45.850Z,0.10
2022-10-18T10:56:17.506Z,0.10
2022-10-18T10:58:46.094Z,0.10
2022-10-18T11:01:22.494Z,0.20
2022-10-18T11:03:53.282Z,0.30
2022-10-18T11:06:32.329Z,0.10
2022-10-18T11:09:03.523Z,0.10
2022-10-18T11:11:34.178Z,0.10
2022-10-18T11:14:25.732Z,0.20
2022-10-18T11:16:58.327Z,0.10
2022-10-18T11:19:35.371Z,0.20
2022-10-18T11:22:06.301Z,0.10
2022-10-18T11:24:35.916Z,0.20
2022-10-18T11:27:08.482Z,0.20
2022-10-18T11:29:47.746Z,0.13
2022-10-18T11:32:20.376Z,0.13
2022-10-18T11:34:57.734Z,0.10
2022-10-18T11:37:48.904Z,0.10
2022-10-18T11:40:26.708Z,0.17
2022-10-18T11:42:58.434Z,0.10
2022-10-18T11:48:10.336Z,0.10
2022-10-18T11:50:42.394Z,0.10
2022-10-18T11:53:17.702Z,0.20
2022-10-18T11:55:58.806Z,0.20
2022-10-18T11:58:33.688Z,0.20
2022-10-18T12:01:06.580Z,0.20
2022-10-18T12:03:37.105Z,0.20
2022-10-18T12:06:08.027Z,0.10
2022-10-18T12:08:39.042Z,0.17
2022-10-18T12:11:11.001Z,0.20
2022-10-18T12:13:41.576Z,0.10
2022-10-18T12:16:11.249Z,0.20
2022-10-18T12:18:46.730Z,0.40
2022-10-18T12:21:18.463Z,0.30
2022-10-18T12:23:53.160Z,0.30
2022-10-18T12:26:22.617Z,0.20
2022-10-18T12:28:57.088Z,0.30
2022-10-18T12:31:28.261Z,0.17
2022-10-18T12:33:58.501Z,0.20
2022-10-18T12:36:41.197Z,0.27
2022-10-18T12:39:12.848Z,0.40
2022-10-18T12:41:41.438Z,0.30
2022-10-18T12:44:20.422Z,0.30
2022-10-18T12:46:50.325Z,0.40
2022-10-18T12:49:20.675Z,0.30
2022-10-18T12:51:54.657Z,0.70
2022-10-18T12:54:25.858Z,0.20
2022-10-18T12:56:54.604Z,0.40
2022-10-18T12:59:53.917Z,0.30
2022-10-18T13:02:30.087Z,0.50
2022-10-18T13:07:41.024Z,0.40
2022-10-18T13:10:42.846Z,0.40
2022-10-18T13:13:39.782Z,0.50
2022-10-18T13:16:24.027Z,0.30
2022-10-18T13:18:55.293Z,0.40
2022-10-18T13:21:29.884Z,0.23
2022-10-18T13:24:16.150Z,0.50
2022-10-18T13:26:58.204Z,0.30
2022-10-18T13:29:51.927Z,0.33
2022-10-18T13:32:25.972Z,0.30
2022-10-18T13:34:54.522Z,0.30
2022-10-18T13:37:25.343Z,0.43
2022-10-18T13:39:54.631Z,0.37
2022-10-18T13:42:33.234Z,0.90
2022-10-18T13:45:20.769Z,0.40
2022-10-18T13:47:49.320Z,0.33
2022-10-18T13:50:26.858Z,0.30
2022-10-18T13:53:02.309Z,0.30
2022-10-18T13:55:38.605Z,0.40
2022-10-18T13:58:13.301Z,0.20
2022-10-18T14:00:50.529Z,0.20
2022-10-18T14:03:55.019Z,0.37
2022-10-18T14:06:19.052Z,0.30
2022-10-18T14:08:49.877Z,0.40
2022-10-18T14:11:27.729Z,0.40
2022-10-18T14:13:59.437Z,0.20
2022-10-18T14:16:33.983Z,0.30
2022-10-18T14:19:06.965Z,0.30
2022-10-18T14:21:38.309Z,0.30
2022-10-18T14:24:11.566Z,0.43
2022-10-18T14:29:20.220Z,0.30
2022-10-18T14:31:56.506Z,0.27
2022-10-18T14:34:25.091Z,0.47
2022-10-18T14:36:53.709Z,0.30
2022-10-18T14:39:24.016Z,0.30
2022-10-18T14:41:53.666Z,0.30
2022-10-18T14:44:26.682Z,0.37
2022-10-18T14:47:00.404Z,0.50
2022-10-18T14:49:29.223Z,0.20
2022-10-18T14:51:58.431Z,0.43
2022-10-18T14:54:31.881Z,0.67
2022-10-18T14:57:01.356Z,0.47
2022-10-18T14:59:32.535Z,0.63
2022-10-18T15:02:01.905Z,0.43
2022-10-18T15:04:33.213Z,0.50
2022-10-18T15:07:03.182Z,0.50
2022-10-18T15:09:32.271Z,0.40
2022-10-18T15:12:00.931Z,0.40
2022-10-18T15:14:31.385Z,0.50
2022-10-18T15:17:02.266Z,0.60
2022-10-18T15:19:34.544Z,0.70
2022-10-18T15:22:30.209Z,0.60
2022-10-18T15:25:08.441Z,0.40
2022-10-18T15:27:38.295Z,0.40
2022-10-18T15:30:11.118Z,0.50
2022-10-18T15:32:41.506Z,0.60
2022-10-18T15:35:13.530Z,0.50
2022-10-18T15:37:43.710Z,0.97
2022-10-18T15:40:30.543Z,0.50
2022-10-18T15:43:00.626Z,0.67
2022-10-18T15:45:33.233Z,0.60
2022-10-18T15:48:02.874Z,0.60
2022-10-18T15:50:41.484Z,0.70
2022-10-18T15:53:26.897Z,3.87
2022-10-18T15:55:56.410Z,6.03
2022-10-18T15:58:26.270Z,3.60
2022-10-18T16:00:58.037Z,2.80
2022-10-18T16:03:26.854Z,0.80
2022-10-18T16:05:57.774Z,1.30
2022-10-18T16:08:28.900Z,0.73
2022-10-18T16:10:57.335Z,0.60
2022-10-18T16:13:25.866Z,0.70
2022-10-18T16:15:56.876Z,17.33
2022-10-18T16:18:25.945Z,13.70
2022-10-18T16:20:54.642Z,24.63
2022-10-18T16:23:24.769Z,25.40
2022-10-18T16:25:53.693Z,12.93
2022-10-18T16:28:23.059Z,8.03
2022-10-18T16:30:57.451Z,1.17
2022-10-18T16:33:25.910Z,1.33
2022-10-18T16:35:54.759Z,1.23
2022-10-18T16:38:34.063Z,0.60
2022-10-18T16:41:04.115Z,0.80
2022-10-18T16:43:32.686Z,2.30
2022-10-18T16:46:02.964Z,1.27
2022-10-18T16:48:31.671Z,0.47
2022-10-18T16:51:00.634Z,0.60
2022-10-18T16:53:29.222Z,0.50
2022-10-18T16:55:59.119Z,0.70
2022-10-18T16:58:28.335Z,0.50
2022-10-18T17:00:57.169Z,0.53
2022-10-18T17:03:27.805Z,0.60
2022-10-18T17:05:56.929Z,0.93
2022-10-18T17:08:26.178Z,1.57
2022-10-18T17:10:55.935Z,1.30
2022-10-18T17:13:25.202Z,1.00
2022-10-18T17:15:54.028Z,0.97
2022-10-18T17:18:23.333Z,0.97
2022-10-18T17:20:53.298Z,0.70
2022-10-18T17:23:21.728Z,0.43
2022-10-18T17:26:04.841Z,0.60
2022-10-18T17:28:36.649Z,0.80
2022-10-18T17:31:08.146Z,0.70
2022-10-18T17:33:36.729Z,0.80
2022-10-18T17:36:06.770Z,1.07
2022-10-18T17:38:35.193Z,1.00
2022-10-18T17:41:07.741Z,1.07
2022-10-18T17:43:36.309Z,1.10
2022-10-18T17:46:04.838Z,1.00
2022-10-18T17:48:33.334Z,1.20
2022-10-18T17:51:01.782Z,1.27
2022-10-18T17:53:32.935Z,1.00
2022-10-18T17:56:02.657Z,0.90
2022-10-18T17:58:31.903Z,0.80
2022-10-18T18:01:00.402Z,0.90
2022-10-18T18:03:28.929Z,0.83
2022-10-18T18:05:57.510Z,0.90
2022-10-18T18:08:26.082Z,0.73
2022-10-18T18:10:57.201Z,0.70
2022-10-18T18:13:25.786Z,0.70
2022-10-18T18:15:54.237Z,0.80
2022-10-18T18:18:22.745Z,1.00
2022-10-18T18:20:54.565Z,0.70
2022-10-18T18:23:23.830Z,0.63
2022-10-18T18:25:58.406Z,0.63
2022-10-18T18:28:27.079Z,0.60
2022-10-18T18:30:55.590Z,0.70
2022-10-18T18:33:24.033Z,0.90
2022-10-18T18:35:56.940Z,0.67
2022-10-18T18:38:25.486Z,0.60
2022-10-18T18:41:05.714Z,0.80
2022-10-18T18:43:34.371Z,0.50
2022-10-18T18:46:02.851Z,0.57
2022-10-18T18:48:33.313Z,0.57
2022-10-18T18:51:02.134Z,0.80
2022-10-18T18:53:30.747Z,0.67
2022-10-18T18:56:07.962Z,0.70
2022-10-18T18:58:36.685Z,0.33
2022-10-18T19:01:08.644Z,0.70
2022-10-18T19:03:38.388Z,0.70
2022-10-18T19:06:07.511Z,0.60
2022-10-18T19:08:37.174Z,0.60
2022-10-18T19:11:09.196Z,0.50
2022-10-18T19:13:38.363Z,0.60
2022-10-18T19:16:18.942Z,0.73
2022-10-18T19:18:51.866Z,0.87
2022-10-18T19:21:20.488Z,0.90
2022-10-18T19:23:50.242Z,1.00
2022-10-18T19:26:39.682Z,0.80
2022-10-18T19:29:10.927Z,1.00
2022-10-18T19:31:39.858Z,0.70
2022-10-18T19:34:09.414Z,1.00
2022-10-18T19:36:38.552Z,1.10
2022-10-18T19:39:08.614Z,0.90
2022-10-18T19:41:37.195Z,0.87
2022-10-18T19:44:05.653Z,0.90
2022-10-18T19:46:35.538Z,0.90
2022-10-18T19:49:04.075Z,0.90
2022-10-18T19:51:32.539Z,0.93
2022-10-18T19:54:01.230Z,0.80
2022-10-18T19:56:30.077Z,1.27
2022-10-18T19:58:59.020Z,0.60
2022-10-18T20:01:27.912Z,0.70
2022-10-18T20:03:57.867Z,0.90
2022-10-18T20:06:26.294Z,0.93
2022-10-18T20:08:55.697Z,0.70
2022-10-18T20:11:24.869Z,0.90
2022-10-18T20:13:53.362Z,1.17
2022-10-18T20:16:27.698Z,0.70
2022-10-18T20:18:58.719Z,0.70
2022-10-18T20:21:28.303Z,0.60
2022-10-18T20:23:57.118Z,1.03
2022-10-18T20:26:25.830Z,1.00
2022-10-18T20:28:56.875Z,1.03
2022-10-18T20:31:25.855Z,1.00
2022-10-18T20:33:56.065Z,1.00
2022-10-18T20:36:26.026Z,1.10
2022-10-18T20:38:54.981Z,4.47
2022-10-18T20:41:24.271Z,1.00
2022-10-18T20:43:53.198Z,0.80
2022-10-18T20:46:21.674Z,0.97
2022-10-18T20:48:50.763Z,1.03
2022-10-18T20:51:19.311Z,1.00
2022-10-18T20:53:49.581Z,1.00
2022-10-18T20:56:20.354Z,0.80
2022-10-18T20:58:49.780Z,0.83
2022-10-18T21:01:19.464Z,0.60
2022-10-18T21:03:48.691Z,0.70
2022-10-18T21:06:18.002Z,1.30
2022-10-18T21:08:46.774Z,1.13
2022-10-18T21:11:16.692Z,0.57
2022-10-18T21:13:45.277Z,0.50
2022-10-18T21:16:13.681Z,0.60
2022-10-18T21:18:42.243Z,0.40
2022-10-18T21:21:14.708Z,0.87
2022-10-18T21:23:43.706Z,0.60
2022-10-18T21:26:15.348Z,0.60
2022-10-18T21:28:45.336Z,0.50
2022-10-18T21:31:14.686Z,0.50
2022-10-18T21:33:43.172Z,0.40
2022-10-18T21:36:11.965Z,0.57
2022-10-18T21:38:40.569Z,0.30
2022-10-18T21:41:10.293Z,0.43
2022-10-18T21:43:38.856Z,0.30
2022-10-18T21:46:10.074Z,0.30
2022-10-18T21:48:38.671Z,0.50
2022-10-18T21:51:07.890Z,0.27
2022-10-18T21:53:36.793Z,0.70
2022-10-18T21:56:09.222Z,3.93
2022-10-18T21:58:38.069Z,4.43
2022-10-18T22:01:10.508Z,4.13
2022-10-18T22:03:39.147Z,1.37
2022-10-18T22:06:09.526Z,0.73
2022-10-18T22:08:38.321Z,2.80
2022-10-18T22:11:07.156Z,4.13
2022-10-18T22:13:35.597Z,5.73
2022-10-18T22:16:04.755Z,0.50
2022-10-18T22:18:35.035Z,0.37
2022-10-18T22:21:04.726Z,0.40
2022-10-18T22:23:33.604Z,0.50
2022-10-18T22:26:05.581Z,0.50
2022-10-18T22:28:34.013Z,0.50
2022-10-18T22:31:02.695Z,0.40
2022-10-18T22:33:31.281Z,0.50
2022-10-18T22:36:01.141Z,0.40
2022-10-18T22:38:34.237Z,0.20
2022-10-18T22:41:05.122Z,0.30
2022-10-18T22:43:33.705Z,0.40
2022-10-18T22:46:03.364Z,0.30
2022-10-18T22:48:32.125Z,0.67
2022-10-18T22:51:01.964Z,0.60
2022-10-18T22:53:30.583Z,0.43
2022-10-18T22:55:59.123Z,0.50
2022-10-18T22:58:27.667Z,0.33
2022-10-18T23:01:01.973Z,0.43
2022-10-18T23:03:30.762Z,0.30
2022-10-18T23:05:59.237Z,0.50
2022-10-18T23:08:29.482Z,0.50
2022-10-18T23:10:59.140Z,4.13
2022-10-18T23:13:28.373Z,0.70
2022-10-18T23:16:04.563Z,1.60
2022-10-18T23:18:33.785Z,0.60
2022-10-18T23:21:03.089Z,0.60
2022-10-18T23:23:35.597Z,0.80
2022-10-18T23:26:05.133Z,0.50
2022-10-18T23:28:35.284Z,0.50
2022-10-18T23:31:07.233Z,0.60
2022-10-18T23:33:35.783Z,0.60
2022-10-18T23:36:04.210Z,0.53
2022-10-18T23:38:34.498Z,0.57
2022-10-18T23:41:02.994Z,0.60
2022-10-18T23:43:31.469Z,0.63
2022-10-18T23:45:59.979Z,0.77
2022-10-18T23:48:28.734Z,0.47
2022-10-18T23:50:57.207Z,0.70
2022-10-18T23:53:26.010Z,0.70
2022-10-18T23:55:56.570Z,0.40
2022-10-18T23:58:25.671Z,0.40
